createdAt,value
2023-10-10T00:02:19.487Z,91891.69
2023-10-10T00:04:53.067Z,91884.81
2023-10-10T00:07:20.325Z,91901.44
2023-10-10T00:09:47.224Z,91890.19
2023-10-10T00:12:18.321Z,91899.13
2023-10-10T00:14:51.220Z,91890.38
2023-10-10T00:17:19.203Z,91884.97
2023-10-10T00:19:55.366Z,91887.94
2023-10-10T00:22:34.894Z,91886.03
2023-10-10T00:25:06.089Z,91888.69
2023-10-10T00:27:33.864Z,91876.16
2023-10-10T00:30:01.533Z,91878.19
2023-10-10T00:32:29.950Z,91873.50
2023-10-10T00:34:57.180Z,91876.94
2023-10-10T00:37:27.081Z,91879.50
2023-10-10T00:39:53.979Z,91868.88
2023-10-10T00:42:21.731Z,91873.81
2023-10-10T00:44:49.399Z,91870.19
2023-10-10T00:47:27.598Z,91876.16
2023-10-10T00:49:54.728Z,91867.28
2023-10-10T00:52:21.550Z,91874.25
2023-10-10T00:54:48.481Z,91865.84
2023-10-10T00:57:15.805Z,91868.59
2023-10-10T00:59:46.068Z,91865.19
2023-10-10T01:02:14.210Z,91867.47
2023-10-10T01:04:49.581Z,91863.63
2023-10-10T01:07:20.331Z,91865.94
2023-10-10T01:10:09.003Z,91865.50
2023-10-10T01:12:40.607Z,91864.16
2023-10-10T01:15:14.320Z,91875.19
2023-10-10T01:17:42.104Z,91878.13
2023-10-10T01:20:35.373Z,91873.03
2023-10-10T01:23:03.562Z,91892.28
2023-10-10T01:25:36.245Z,91876.53
2023-10-10T01:28:07.003Z,91869.94
2023-10-10T01:30:58.847Z,91873.09
2023-10-10T01:33:37.490Z,91867.81
2023-10-10T01:36:12.744Z,91859.78
2023-10-10T01:38:57.792Z,91869.50
2023-10-10T01:41:32.316Z,91861.75
2023-10-10T01:44:13.921Z,91855.88
2023-10-10T01:46:41.987Z,91867.72
2023-10-10T01:49:16.040Z,91863.78
2023-10-10T01:51:45.701Z,91860.56
2023-10-10T01:54:17.178Z,91854.28
2023-10-10T01:56:44.115Z,91858.00
2023-10-10T01:59:15.064Z,91853.13
2023-10-10T02:01:45.196Z,91854.34
2023-10-10T02:04:12.021Z,91860.16
2023-10-10T02:06:41.645Z,91860.41
2023-10-10T02:09:20.515Z,91864.44
2023-10-10T02:11:56.214Z,91876.06
2023-10-10T02:14:31.900Z,91874.38
2023-10-10T02:17:08.079Z,91866.19
2023-10-10T02:19:41.061Z,91856.78
2023-10-10T02:22:20.722Z,91862.63
2023-10-10T02:24:50.300Z,91861.06
2023-10-10T02:27:23.561Z,91855.84
2023-10-10T02:29:51.123Z,91864.41
2023-10-10T02:32:20.629Z,91860.78
2023-10-10T02:35:06.331Z,91860.03
2023-10-10T02:37:59.298Z,91865.94
2023-10-10T02:40:32.322Z,91858.09
2023-10-10T02:43:17.394Z,91876.69
2023-10-10T02:45:46.362Z,91860.22
2023-10-10T02:48:21.612Z,91859.19
2023-10-10T02:50:52.712Z,91858.22
2023-10-10T02:53:20.930Z,91859.19
2023-10-10T02:55:53.611Z,91857.75
2023-10-10T02:58:23.264Z,91863.00
2023-10-10T03:00:50.942Z,91861.22
2023-10-10T03:03:23.139Z,91869.34
2023-10-10T03:05:52.859Z,91855.78
2023-10-10T03:08:35.812Z,91855.38
2023-10-10T03:11:03.579Z,91862.63
2023-10-10T03:13:30.901Z,91863.38
2023-10-10T03:16:12.098Z,91868.16
2023-10-10T03:18:44.758Z,91864.38
2023-10-10T03:21:20.033Z,91870.13
2023-10-10T03:23:57.423Z,91870.75
2023-10-10T03:26:53.492Z,91878.88
2023-10-10T03:29:28.753Z,91882.91
2023-10-10T03:32:14.092Z,91884.81
2023-10-10T03:34:55.924Z,91881.16
2023-10-10T03:37:42.153Z,91879.16
2023-10-10T03:40:28.506Z,91874.66
2023-10-10T03:43:13.744Z,91863.97
2023-10-10T03:46:01.951Z,91878.16
2023-10-10T03:48:47.244Z,91874.88
2023-10-10T03:51:32.419Z,91880.00
2023-10-10T03:54:17.368Z,91874.63
2023-10-10T03:57:02.725Z,91877.34
2023-10-10T04:00:01.483Z,91889.41
2023-10-10T04:02:46.602Z,91888.06
2023-10-10T04:05:31.816Z,91882.25
2023-10-10T04:08:17.246Z,91888.91
2023-10-10T04:11:06.017Z,91886.84
2023-10-10T04:13:51.140Z,91877.50
2023-10-10T04:16:36.592Z,91883.56
2023-10-10T04:19:21.720Z,91894.25
2023-10-10T04:22:11.251Z,91891.03
2023-10-10T04:25:04.447Z,91885.88
2023-10-10T04:27:49.854Z,91886.31
2023-10-10T04:30:35.033Z,91881.81
2023-10-10T04:33:20.449Z,91893.88
2023-10-10T04:36:05.898Z,91895.16
2023-10-10T04:38:51.136Z,91903.69
2023-10-10T04:41:38.100Z,91897.50
2023-10-10T04:44:23.353Z,91899.19
2023-10-10T04:47:08.979Z,91893.22
2023-10-10T04:49:54.311Z,91895.44
2023-10-10T04:52:39.567Z,91904.66
2023-10-10T04:55:24.925Z,91904.50
2023-10-10T04:58:09.833Z,91901.75
2023-10-10T05:00:55.349Z,91910.34
2023-10-10T05:03:40.377Z,91924.84
2023-10-10T05:06:25.648Z,91918.88
2023-10-10T05:09:10.944Z,91923.69
2023-10-10T05:11:56.093Z,91925.72
2023-10-10T05:14:41.451Z,91924.13
2023-10-10T05:17:26.963Z,91932.00
2023-10-10T05:20:12.189Z,91935.53
2023-10-10T05:23:17.428Z,91923.34
2023-10-10T05:25:44.188Z,91923.16
2023-10-10T05:28:12.113Z,91923.81
2023-10-10T05:30:44.089Z,91924.06
2023-10-10T05:33:11.189Z,91931.16
2023-10-10T05:35:38.800Z,91931.00
2023-10-10T05:38:06.178Z,91944.72
2023-10-10T05:40:34.862Z,91946.44
2023-10-10T05:43:04.284Z,91937.72
2023-10-10T05:45:31.708Z,91933.50
2023-10-10T05:47:59.248Z,91947.66
2023-10-10T05:50:26.176Z,91955.25
2023-10-10T05:52:53.069Z,91965.56
2023-10-10T05:55:19.815Z,91952.06
2023-10-10T05:57:47.293Z,91954.66
2023-10-10T06:00:15.226Z,91965.88
2023-10-10T06:02:46.970Z,91976.91
2023-10-10T06:05:16.941Z,91977.81
2023-10-10T06:07:46.612Z,91970.53
2023-10-10T06:10:17.581Z,91971.88
2023-10-10T06:12:44.992Z,91987.50
2023-10-10T06:15:13.004Z,91979.78
2023-10-10T06:17:40.844Z,91971.72
2023-10-10T06:20:08.304Z,91973.09
2023-10-10T06:22:35.175Z,91963.63
2023-10-10T06:25:03.135Z,91970.19
2023-10-10T06:27:38.058Z,91965.34
2023-10-10T06:30:06.474Z,91974.50
2023-10-10T06:32:33.391Z,91978.97
2023-10-10T06:35:25.893Z,91967.03
2023-10-10T06:37:55.834Z,91966.41
2023-10-10T06:40:31.346Z,91972.00
2023-10-10T06:43:00.950Z,91971.22
2023-10-10T06:45:36.770Z,91971.09
2023-10-10T06:48:03.822Z,91979.31
2023-10-10T06:50:33.523Z,91961.41
2023-10-10T06:53:01.818Z,91971.09
2023-10-10T06:55:38.140Z,91965.53
2023-10-10T06:58:06.647Z,91967.38
2023-10-10T07:00:43.889Z,91969.13
2023-10-10T07:03:11.548Z,91971.69
2023-10-10T07:05:41.013Z,91979.28
2023-10-10T07:08:14.495Z,91976.41
2023-10-10T07:10:44.461Z,91971.25
2023-10-10T07:13:15.582Z,91964.34
2023-10-10T07:15:43.160Z,91970.97
2023-10-10T07:18:11.142Z,91975.81
2023-10-10T07:20:56.797Z,91983.53
2023-10-10T07:23:23.999Z,91987.16
2023-10-10T07:26:00.534Z,91979.22
2023-10-10T07:28:28.422Z,91983.06
2023-10-10T07:30:55.825Z,91985.34
2023-10-10T07:33:31.142Z,91978.41
2023-10-10T07:35:58.212Z,91983.22
2023-10-10T07:38:31.734Z,91985.69
2023-10-10T07:40:58.501Z,91986.56
2023-10-10T07:43:28.625Z,91990.03
2023-10-10T07:45:58.202Z,91991.13
2023-10-10T07:48:27.670Z,91982.53
2023-10-10T07:51:07.276Z,91988.94
2023-10-10T07:53:42.182Z,91992.03
2023-10-10T07:56:09.035Z,91991.44
2023-10-10T07:58:51.931Z,91992.13
2023-10-10T08:01:19.828Z,91983.38
2023-10-10T08:03:47.192Z,91986.69
2023-10-10T08:06:18.406Z,91989.41
2023-10-10T08:08:46.242Z,91997.88
2023-10-10T08:11:25.948Z,92007.28
2023-10-10T08:13:52.738Z,92000.66
2023-10-10T08:16:23.203Z,91998.41
2023-10-10T08:18:49.881Z,92001.81
2023-10-10T08:21:16.898Z,92000.50
2023-10-10T08:23:44.431Z,91998.41
2023-10-10T08:26:19.187Z,91993.66
2023-10-10T08:28:46.717Z,91993.09
2023-10-10T08:31:15.090Z,91991.09
2023-10-10T08:33:46.176Z,92002.06
2023-10-10T08:36:25.876Z,91994.47
2023-10-10T08:38:59.728Z,92000.06
2023-10-10T08:41:27.819Z,91998.72
2023-10-10T08:43:59.310Z,92002.28
2023-10-10T08:46:30.995Z,92005.59
2023-10-10T08:49:01.728Z,91995.66
2023-10-10T08:51:34.971Z,92003.63
2023-10-10T08:54:11.725Z,92002.59
2023-10-10T08:56:54.420Z,92008.13
2023-10-10T08:59:21.097Z,92000.09
2023-10-10T09:01:47.851Z,91998.56
2023-10-10T09:04:20.457Z,91988.47
2023-10-10T09:07:14.191Z,91997.06
2023-10-10T09:09:41.627Z,91997.50
2023-10-10T09:12:21.112Z,91995.75
2023-10-10T09:14:53.798Z,91989.47
2023-10-10T09:17:30.229Z,91996.22
2023-10-10T09:20:01.597Z,92003.38
2023-10-10T09:22:44.496Z,92005.59
2023-10-10T09:25:20.316Z,92003.69
2023-10-10T09:28:05.771Z,92010.88
2023-10-10T09:30:46.710Z,92003.34
2023-10-10T09:33:29.139Z,92014.88
2023-10-10T09:36:00.468Z,92004.94
2023-10-10T09:38:28.334Z,92013.88
2023-10-10T09:41:11.885Z,92012.78
2023-10-10T09:43:50.412Z,92015.19
2023-10-10T09:46:25.143Z,92017.91
2023-10-10T09:49:18.930Z,92015.25
2023-10-10T09:51:57.352Z,92014.75
2023-10-10T09:54:26.806Z,92013.22
2023-10-10T09:56:55.118Z,92016.78
2023-10-10T09:59:22.156Z,92006.81
2023-10-10T10:01:49.447Z,92004.63
2023-10-10T10:04:20.508Z,92006.25
2023-10-10T10:07:07.624Z,92005.59
2023-10-10T10:09:46.826Z,91995.78
2023-10-10T10:12:54.737Z,91990.31
2023-10-10T10:15:21.299Z,91992.53
2023-10-10T10:17:58.038Z,91994.97
2023-10-10T10:20:35.725Z,91982.66
2023-10-10T10:23:02.658Z,91988.22
2023-10-10T10:25:37.502Z,91985.22
2023-10-10T10:28:12.324Z,91986.72
2023-10-10T10:30:48.211Z,91984.03
2023-10-10T10:33:16.247Z,91977.47
2023-10-10T10:35:58.070Z,91981.94
2023-10-10T10:38:25.274Z,91983.72
2023-10-10T10:40:52.810Z,91978.81
2023-10-10T10:43:22.523Z,91974.38
2023-10-10T10:45:53.153Z,91968.97
2023-10-10T10:48:35.357Z,91973.50
2023-10-10T10:51:27.965Z,91973.41
2023-10-10T10:54:02.352Z,91976.38
2023-10-10T10:56:32.569Z,91966.84
2023-10-10T10:59:21.115Z,91957.13
2023-10-10T11:01:58.912Z,91967.28
2023-10-10T11:04:32.642Z,91964.75
2023-10-10T11:07:08.918Z,91970.34
2023-10-10T11:09:38.405Z,91962.41
2023-10-10T11:12:09.624Z,91964.78
2023-10-10T11:14:45.617Z,91963.28
2023-10-10T11:17:19.729Z,91963.50
2023-10-10T11:19:55.310Z,91958.47
2023-10-10T11:22:40.781Z,91959.84
2023-10-10T11:25:12.475Z,91966.25
2023-10-10T11:27:45.569Z,91971.06
2023-10-10T11:30:13.534Z,91970.09
2023-10-10T11:32:50.216Z,91983.44
2023-10-10T11:35:24.168Z,91974.28
2023-10-10T11:38:00.556Z,91986.13
2023-10-10T11:40:30.828Z,91982.66
2023-10-10T11:42:58.119Z,91979.88
2023-10-10T11:45:28.313Z,91981.88
2023-10-10T11:48:02.184Z,91984.69
2023-10-10T11:50:52.484Z,91979.16
2023-10-10T11:53:21.429Z,91981.34
2023-10-10T11:55:48.958Z,91974.84
2023-10-10T11:58:18.841Z,91977.22
2023-10-10T12:01:05.628Z,91978.06
2023-10-10T12:03:42.984Z,91979.34
2023-10-10T12:06:21.144Z,91971.47
2023-10-10T12:08:51.964Z,91974.75
2023-10-10T12:11:23.457Z,91969.06
2023-10-10T12:13:51.945Z,91968.38
2023-10-10T12:16:19.178Z,91963.63
2023-10-10T12:18:53.980Z,91972.63
2023-10-10T12:21:22.753Z,91967.28
2023-10-10T12:23:51.534Z,91970.31
2023-10-10T12:26:19.711Z,91972.59
2023-10-10T12:28:49.630Z,91979.81
2023-10-10T12:31:19.161Z,91973.19
2023-10-10T12:33:55.280Z,91962.38
2023-10-10T12:36:30.938Z,91962.78
2023-10-10T12:38:59.588Z,91966.53
2023-10-10T12:41:33.873Z,91965.81
2023-10-10T12:44:00.744Z,91974.50
2023-10-10T12:46:27.452Z,91966.16
2023-10-10T12:48:54.242Z,91961.34
2023-10-10T12:51:25.088Z,91964.84
2023-10-10T12:54:01.342Z,91966.41
2023-10-10T12:56:29.012Z,91964.31
2023-10-10T12:59:05.196Z,91962.41
2023-10-10T13:01:37.049Z,91958.75
2023-10-10T13:04:09.235Z,91961.03
2023-10-10T13:06:41.050Z,91957.06
2023-10-10T13:09:09.897Z,91966.75
2023-10-10T13:11:45.421Z,91966.00
2023-10-10T13:14:25.979Z,91967.22
2023-10-10T13:16:52.816Z,91962.13
2023-10-10T13:19:22.009Z,91972.88
2023-10-10T13:21:49.065Z,91974.56
2023-10-10T13:24:16.675Z,91975.78
2023-10-10T13:26:51.414Z,91974.41
2023-10-10T13:29:18.737Z,91971.38
2023-10-10T13:31:50.441Z,91976.25
2023-10-10T13:34:19.785Z,91971.91
2023-10-10T13:36:46.428Z,91977.81
2023-10-10T13:39:17.344Z,91975.66
2023-10-10T13:41:44.042Z,91980.13
2023-10-10T13:44:12.261Z,91986.94
2023-10-10T13:46:39.235Z,91986.28
2023-10-10T13:49:09.971Z,91988.56
2023-10-10T13:51:42.976Z,91991.19
2023-10-10T13:54:09.724Z,91989.13
2023-10-10T13:56:36.515Z,91994.53
2023-10-10T13:59:03.705Z,91991.13
2023-10-10T14:01:30.808Z,91994.09
2023-10-10T14:04:05.332Z,91992.31
2023-10-10T14:06:47.264Z,91990.66
2023-10-10T14:09:25.928Z,91987.34
2023-10-10T14:11:54.476Z,91990.91
2023-10-10T14:14:22.141Z,91993.44
2023-10-10T14:16:49.417Z,91996.63
2023-10-10T14:19:16.158Z,91995.84
2023-10-10T14:21:42.914Z,91997.81
2023-10-10T14:24:09.867Z,91993.44
2023-10-10T14:26:37.669Z,92001.25
2023-10-10T14:29:08.752Z,91996.63
2023-10-10T14:31:36.553Z,92000.38
2023-10-10T14:34:04.145Z,91997.16
2023-10-10T14:36:31.460Z,92000.69
2023-10-10T14:39:01.181Z,91997.31
2023-10-10T14:41:36.751Z,92008.09
2023-10-10T14:44:05.056Z,92008.00
2023-10-10T14:46:33.237Z,92005.16
2023-10-10T14:49:07.457Z,92008.25
2023-10-10T14:51:35.549Z,92018.84
2023-10-10T14:54:13.039Z,92011.66
2023-10-10T14:56:40.851Z,92018.09
2023-10-10T14:59:08.165Z,92016.41
2023-10-10T15:01:35.732Z,92030.59
2023-10-10T15:04:06.412Z,92020.84
2023-10-10T15:06:34.395Z,92029.25
2023-10-10T15:09:01.530Z,92022.38
2023-10-10T15:11:29.153Z,92029.13
2023-10-10T15:13:58.774Z,92037.84
2023-10-10T15:16:28.703Z,92031.19
2023-10-10T15:18:55.636Z,92026.06
2023-10-10T15:21:22.525Z,92025.59
2023-10-10T15:23:49.342Z,92034.03
2023-10-10T15:26:20.699Z,92031.69
2023-10-10T15:28:47.739Z,92031.97
2023-10-10T15:31:14.927Z,92033.78
2023-10-10T15:33:44.722Z,92036.13
2023-10-10T15:36:13.005Z,92040.13
2023-10-10T15:38:39.934Z,92044.09
2023-10-10T15:41:18.794Z,92040.88
2023-10-10T15:43:48.262Z,92056.59
2023-10-10T15:46:18.454Z,92058.25
2023-10-10T15:48:49.830Z,92059.13
2023-10-10T15:51:17.154Z,92064.56
2023-10-10T15:53:43.921Z,92064.91
2023-10-10T15:56:14.400Z,92079.72
2023-10-10T15:58:53.778Z,92074.03
2023-10-10T16:01:28.988Z,92075.25
2023-10-10T16:03:56.691Z,92082.75
2023-10-10T16:06:23.756Z,92079.47
2023-10-10T16:08:51.362Z,92076.94
2023-10-10T16:11:21.121Z,92086.44
2023-10-10T16:13:49.700Z,92082.44
2023-10-10T16:16:19.660Z,92088.97
2023-10-10T16:18:49.572Z,92092.34
2023-10-10T16:21:16.396Z,92089.25
2023-10-10T16:23:46.677Z,92092.22
2023-10-10T16:26:16.113Z,92099.31
2023-10-10T16:28:42.879Z,92097.41
2023-10-10T16:31:16.724Z,92103.06
2023-10-10T16:33:43.889Z,92101.19
2023-10-10T16:36:23.612Z,92111.91
2023-10-10T16:38:55.788Z,92107.13
2023-10-10T16:41:23.794Z,92107.81
2023-10-10T16:44:00.797Z,92115.97
2023-10-10T16:46:31.881Z,92116.50
2023-10-10T16:48:58.921Z,92117.22
2023-10-10T16:51:28.510Z,92122.56
2023-10-10T16:53:56.560Z,92118.78
2023-10-10T16:56:23.559Z,92124.06
2023-10-10T16:58:50.975Z,92119.00
2023-10-10T17:01:18.534Z,92124.69
2023-10-10T17:03:46.387Z,92118.91
2023-10-10T17:06:13.680Z,92123.53
2023-10-10T17:08:40.693Z,92126.09
2023-10-10T17:11:10.891Z,92120.22
2023-10-10T17:13:40.690Z,92121.75
2023-10-10T17:16:26.947Z,92120.88
2023-10-10T17:18:54.838Z,92128.91
2023-10-10T17:21:24.637Z,92129.53
2023-10-10T17:23:51.637Z,92128.13
2023-10-10T17:26:20.346Z,92136.66
2023-10-10T17:28:49.384Z,92136.91
2023-10-10T17:31:21.223Z,92129.06
2023-10-10T17:33:48.211Z,92138.09
2023-10-10T17:36:16.662Z,92138.09
2023-10-10T17:38:45.104Z,92142.66
2023-10-10T17:41:14.914Z,92140.84
2023-10-10T17:43:44.534Z,92148.59
2023-10-10T17:46:23.405Z,92144.88
2023-10-10T17:48:56.243Z,92147.88
2023-10-10T17:51:25.256Z,92149.94
2023-10-10T17:53:55.850Z,92160.78
2023-10-10T17:56:24.941Z,92159.66
2023-10-10T17:58:51.846Z,92157.63
2023-10-10T18:01:21.298Z,92159.28
2023-10-10T18:03:49.742Z,92159.47
2023-10-10T18:06:40.457Z,92163.47
2023-10-10T18:09:10.244Z,92170.06
2023-10-10T18:11:37.979Z,92175.81
2023-10-10T18:14:06.637Z,92174.69
2023-10-10T18:16:35.436Z,92171.94
2023-10-10T18:19:02.888Z,92171.94
2023-10-10T18:21:31.579Z,92163.66
2023-10-10T18:23:58.830Z,92172.19
2023-10-10T18:26:25.836Z,92179.06
2023-10-10T18:28:53.720Z,92168.66
2023-10-10T18:31:25.948Z,92172.06
2023-10-10T18:33:55.676Z,92163.50
2023-10-10T18:36:23.902Z,92158.50
2023-10-10T18:38:52.453Z,92171.28
2023-10-10T18:41:24.186Z,92175.19
2023-10-10T18:43:51.692Z,92160.41
2023-10-10T18:46:18.474Z,92167.06
2023-10-10T18:48:46.709Z,92167.22
2023-10-10T18:51:14.291Z,92173.13
2023-10-10T18:53:41.994Z,92169.41
2023-10-10T18:56:09.472Z,92172.81
2023-10-10T18:58:40.446Z,92183.06
2023-10-10T19:01:11.751Z,92177.59
2023-10-10T19:03:48.228Z,92177.97
2023-10-10T19:06:16.015Z,92185.25
2023-10-10T19:08:45.655Z,92171.41
2023-10-10T19:11:16.285Z,92176.16
2023-10-10T19:13:50.579Z,92174.34
2023-10-10T19:16:18.485Z,92180.78
2023-10-10T19:18:49.005Z,92180.78
2023-10-10T19:21:16.945Z,92174.91
2023-10-10T19:23:44.960Z,92181.53
2023-10-10T19:26:13.833Z,92181.88
2023-10-10T19:28:42.948Z,92171.28
2023-10-10T19:31:09.759Z,92175.66
2023-10-10T19:33:36.737Z,92174.09
2023-10-10T19:36:03.711Z,92177.56
2023-10-10T19:38:33.141Z,92180.06
2023-10-10T19:41:07.474Z,92187.25
2023-10-10T19:43:37.571Z,92187.94
2023-10-10T19:46:05.781Z,92192.78
2023-10-10T19:48:32.678Z,92189.31
2023-10-10T19:51:06.055Z,92195.75
2023-10-10T19:53:34.021Z,92199.63
2023-10-10T19:56:01.131Z,92203.38
2023-10-10T19:58:31.604Z,92206.31
2023-10-10T20:01:00.585Z,92200.69
2023-10-10T20:03:29.484Z,92212.78
2023-10-10T20:05:56.646Z,92218.38
2023-10-10T20:08:23.396Z,92213.09
2023-10-10T20:10:50.292Z,92208.97
2023-10-10T20:13:18.402Z,92216.94
2023-10-10T20:15:45.481Z,92219.44
2023-10-10T20:18:12.563Z,92214.03
2023-10-10T20:20:42.802Z,92218.69
2023-10-10T20:23:10.129Z,92220.25
2023-10-10T20:25:41.086Z,92227.34
2023-10-10T20:28:08.657Z,92224.84
2023-10-10T20:30:38.101Z,92225.47
2023-10-10T20:33:06.079Z,92222.78
2023-10-10T20:35:33.515Z,92220.41
2023-10-10T20:38:07.454Z,92222.09
2023-10-10T20:40:35.084Z,92227.81
2023-10-10T20:43:03.077Z,92233.66
2023-10-10T20:45:30.280Z,92226.06
2023-10-10T20:47:57.666Z,92229.38
2023-10-10T20:50:32.789Z,92228.97
2023-10-10T20:53:00.727Z,92228.97
2023-10-10T20:55:28.821Z,92230.66
2023-10-10T20:57:57.513Z,92231.94
2023-10-10T21:00:25.985Z,92242.56
2023-10-10T21:02:54.198Z,92244.88
2023-10-10T21:05:25.676Z,92243.88
2023-10-10T21:07:52.849Z,92243.66
2023-10-10T21:10:20.549Z,92245.75
2023-10-10T21:12:47.870Z,92240.47
2023-10-10T21:15:16.471Z,92247.34
2023-10-10T21:17:43.985Z,92248.91
2023-10-10T21:20:11.551Z,92253.16
2023-10-10T21:22:41.689Z,92246.72
2023-10-10T21:25:09.097Z,92244.91
2023-10-10T21:27:36.477Z,92258.72
2023-10-10T21:30:03.535Z,92239.53
2023-10-10T21:32:30.414Z,92247.84
2023-10-10T21:34:57.335Z,92240.22
2023-10-10T21:37:24.513Z,92249.97
2023-10-10T21:39:51.547Z,92250.34
2023-10-10T21:42:20.512Z,92250.56
2023-10-10T21:44:47.216Z,92255.38
2023-10-10T21:47:15.708Z,92257.94
2023-10-10T21:49:45.586Z,92259.69
2023-10-10T21:52:12.337Z,92255.19
2023-10-10T21:54:39.038Z,92253.91
2023-10-10T21:57:05.702Z,92254.66
2023-10-10T21:59:35.500Z,92260.34
2023-10-10T22:02:02.769Z,92261.63
2023-10-10T22:04:29.676Z,92263.97
2023-10-10T22:06:56.506Z,92260.41
2023-10-10T22:09:23.409Z,92266.38
2023-10-10T22:11:50.285Z,92265.66
2023-10-10T22:14:17.064Z,92268.91
2023-10-10T22:16:44.825Z,92278.13
2023-10-10T22:19:12.368Z,92275.34
2023-10-10T22:21:40.547Z,92270.06
2023-10-10T22:24:07.998Z,92277.88
2023-10-10T22:26:37.901Z,92274.56
2023-10-10T22:29:05.310Z,92268.09
2023-10-10T22:31:32.747Z,92282.16
2023-10-10T22:33:59.972Z,92278.19
2023-10-10T22:36:28.920Z,92282.13
2023-10-10T22:38:55.780Z,92276.94
2023-10-10T22:41:22.616Z,92284.34
2023-10-10T22:43:49.901Z,92284.75
2023-10-10T22:46:16.822Z,92279.88
2023-10-10T22:48:44.536Z,92283.28
2023-10-10T22:51:14.081Z,92284.19
2023-10-10T22:53:41.330Z,92290.44
2023-10-10T22:56:12.817Z,92296.69
2023-10-10T22:58:43.407Z,92291.44
2023-10-10T23:01:16.074Z,92278.59
2023-10-10T23:03:43.610Z,92279.22
2023-10-10T23:06:13.450Z,92275.72
2023-10-10T23:08:40.771Z,92277.78
2023-10-10T23:11:09.534Z,92269.38
2023-10-10T23:13:36.224Z,92272.97
2023-10-10T23:16:02.999Z,92270.78
2023-10-10T23:18:30.328Z,92276.22
2023-10-10T23:20:57.084Z,92276.72
2023-10-10T23:23:24.762Z,92282.75
2023-10-10T23:25:52.272Z,92265.47
2023-10-10T23:28:19.096Z,92277.78
2023-10-10T23:30:45.812Z,92268.13
2023-10-10T23:33:13.897Z,92268.09
2023-10-10T23:35:41.545Z,92266.56
2023-10-10T23:38:09.496Z,92273.72
2023-10-10T23:40:45.675Z,92266.53
2023-10-10T23:43:20.004Z,92266.31
2023-10-10T23:45:47.709Z,92262.41
2023-10-10T23:48:17.646Z,92262.28
2023-10-10T23:50:45.236Z,92266.44
2023-10-10T23:53:15.291Z,92256.56
2023-10-10T23:55:42.490Z,92261.59
2023-10-10T23:58:13.079Z,92263.03
